sensor_id;sensor_type;location;lat;lon;timestamp;temperature;humidity
1806;DHT22;901;48.142;11.516;2022-10-03T01:52:32;10.10;99.90
1806;DHT22;901;48.142;11.516;2022-10-03T03:44:59;9.00;99.90
1806;DHT22;901;48.142;11.516;2022-10-03T04:15:13;8.60;99.90
1806;DHT22;901;48.142;11.516;2022-10-03T04:42:54;8.50;99.90
1806;DHT22;901;48.142;11.516;2022-10-03T04:56:03;8.40;99.90
1806;DHT22;901;48.142;11.516;2022-10-03T05:25:59;8.40;99.90
1806;DHT22;901;48.142;11.516;2022-10-03T05:32:32;8.40;99.90
1806;DHT22;901;48.142;11.516;2022-10-03T05:35:27;8.40;99.90
1806;DHT22;901;48.142;11.516;2022-10-03T05:38:28;8.40;99.90
1806;DHT22;901;48.142;11.516;2022-10-03T05:47:47;8.60;99.90
1806;DHT22;901;48.142;11.516;2022-10-03T06:00:40;8.90;99.90
1806;DHT22;901;48.142;11.516;2022-10-03T06:03:51;9.00;99.90
1806;DHT22;901;48.142;11.516;2022-10-03T06:06:32;9.10;99.90
1806;DHT22;901;48.142;11.516;2022-10-03T06:12:06;9.10;99.90
1806;DHT22;901;48.142;11.516;2022-10-03T06:15:05;9.20;99.90
1806;DHT22;901;48.142;11.516;2022-10-03T06:17:57;9.10;99.90
1806;DHT22;901;48.142;11.516;2022-10-03T06:24:03;9.20;99.90
1806;DHT22;901;48.142;11.516;2022-10-03T06:33:09;9.70;99.90
1806;DHT22;901;48.142;11.516;2022-10-03T06:36:20;9.90;99.90
1806;DHT22;901;48.142;11.516;2022-10-03T06:39:36;10.00;99.90
1806;DHT22;901;48.142;11.516;2022-10-03T06:42:28;10.30;99.90
1806;DHT22;901;48.142;11.516;2022-10-03T06:45:23;10.50;99.90
1806;DHT22;901;48.142;11.516;2022-10-03T06:48:06;10.60;99.90
1806;DHT22;901;48.142;11.516;2022-10-03T06:50:47;10.70;99.90
1806;DHT22;901;48.142;11.516;2022-10-03T06:53:38;10.80;99.90
1806;DHT22;901;48.142;11.516;2022-10-03T06:56:36;10.90;99.90
1806;DHT22;901;48.142;11.516;2022-10-03T07:05:25;11.30;99.90
1806;DHT22;901;48.142;11.516;2022-10-03T07:11:28;11.50;99.90
1806;DHT22;901;48.142;11.516;2022-10-03T07:17:25;11.70;99.90
1806;DHT22;901;48.142;11.516;2022-10-03T07:20:13;11.80;99.90
1806;DHT22;901;48.142;11.516;2022-10-03T07:23:20;11.90;99.90
1806;DHT22;901;48.142;11.516;2022-10-03T07:26:24;12.00;99.90
1806;DHT22;901;48.142;11.516;2022-10-03T07:32:10;12.20;99.90
1806;DHT22;901;48.142;11.516;2022-10-03T07:35:13;12.30;99.90
1806;DHT22;901;48.142;11.516;2022-10-03T07:38:01;12.40;99.90
1806;DHT22;901;48.142;11.516;2022-10-03T07:41:15;12.50;99.90
1806;DHT22;901;48.142;11.516;2022-10-03T07:44:01;12.60;99.90
1806;DHT22;901;48.142;11.516;2022-10-03T07:49:42;12.80;99.90
1806;DHT22;901;48.142;11.516;2022-10-03T07:52:38;12.90;99.90
1806;DHT22;901;48.142;11.516;2022-10-03T07:55:26;13.00;99.90
1806;DHT22;901;48.142;11.516;2022-10-03T07:58:23;13.10;99.90
1806;DHT22;901;48.142;11.516;2022-10-03T08:04:29;13.20;99.90
1806;DHT22;901;48.142;11.516;2022-10-03T08:07:10;13.20;99.90
1806;DHT22;901;48.142;11.516;2022-10-03T08:10:03;13.20;99.90
1806;DHT22;901;48.142;11.516;2022-10-03T08:12:46;13.30;99.90
1806;DHT22;901;48.142;11.516;2022-10-03T08:15:22;13.20;99.90
1806;DHT22;901;48.142;11.516;2022-10-03T08:18:10;13.00;99.90
1806;DHT22;901;48.142;11.516;2022-10-03T08:20:48;12.50;99.90
1806;DHT22;901;48.142;11.516;2022-10-03T08:23:47;11.90;99.90
1806;DHT22;901;48.142;11.516;2022-10-03T08:26:30;11.90;99.90
1806;DHT22;901;48.142;11.516;2022-10-03T08:29:23;11.70;99.90
1806;DHT22;901;48.142;11.516;2022-10-03T08:32:15;11.70;99.90
1806;DHT22;901;48.142;11.516;2022-10-03T08:35:05;11.90;99.90
1806;DHT22;901;48.142;11.516;2022-10-03T08:47:30;12.10;99.90
1806;DHT22;901;48.142;11.516;2022-10-03T08:50:52;12.00;99.90
1806;DHT22;901;48.142;11.516;2022-10-03T08:56:34;11.50;99.90
1806;DHT22;901;48.142;11.516;2022-10-03T09:06:01;11.60;99.90
1806;DHT22;901;48.142;11.516;2022-10-03T09:09:16;11.80;99.90
1806;DHT22;901;48.142;11.516;2022-10-03T09:12:05;12.00;99.90
1806;DHT22;901;48.142;11.516;2022-10-03T09:14:59;12.30;99.90
1806;DHT22;901;48.142;11.516;2022-10-03T09:21:01;12.90;99.90
1806;DHT22;901;48.142;11.516;2022-10-03T09:23:53;13.40;99.90
1806;DHT22;901;48.142;11.516;2022-10-03T09:38:32;14.40;99.90
1806;DHT22;901;48.142;11.516;2022-10-03T09:41:24;14.40;99.90
1806;DHT22;901;48.142;11.516;2022-10-03T09:44:18;14.20;99.90
1806;DHT22;901;48.142;11.516;2022-10-03T09:46:57;14.20;99.90
1806;DHT22;901;48.142;11.516;2022-10-03T09:53:29;13.80;99.90
1806;DHT22;901;48.142;11.516;2022-10-03T09:56:22;13.80;99.90
1806;DHT22;901;48.142;11.516;2022-10-03T09:59:09;14.00;99.90
1806;DHT22;901;48.142;11.516;2022-10-03T10:01:42;14.50;99.90
1806;DHT22;901;48.142;11.516;2022-10-03T10:04:42;14.90;99.90
1806;DHT22;901;48.142;11.516;2022-10-03T10:07:34;15.30;99.90
1806;DHT22;901;48.142;11.516;2022-10-03T10:13:19;15.80;99.90
1806;DHT22;901;48.142;11.516;2022-10-03T10:16:13;15.90;99.90
1806;DHT22;901;48.142;11.516;2022-10-03T10:19:14;15.60;99.90
1806;DHT22;901;48.142;11.516;2022-10-03T10:25:11;15.80;99.90
1806;DHT22;901;48.142;11.516;2022-10-03T10:28:11;16.00;99.90
1806;DHT22;901;48.142;11.516;2022-10-03T10:31:17;15.30;99.90
1806;DHT22;901;48.142;11.516;2022-10-03T10:34:36;14.60;99.90
1806;DHT22;901;48.142;11.516;2022-10-03T10:40:48;13.90;99.90
1806;DHT22;901;48.142;11.516;2022-10-03T10:46:51;13.80;99.90
1806;DHT22;901;48.142;11.516;2022-10-03T10:53:50;14.50;99.90
1806;DHT22;901;48.142;11.516;2022-10-03T10:56:12;14.40;99.90
1806;DHT22;901;48.142;11.516;2022-10-03T11:05:25;14.00;99.90
1806;DHT22;901;48.142;11.516;2022-10-03T11:08:38;14.10;99.90
1806;DHT22;901;48.142;11.516;2022-10-03T11:14:54;14.10;99.90
1806;DHT22;901;48.142;11.516;2022-10-03T11:21:14;14.30;99.90
1806;DHT22;901;48.142;11.516;2022-10-03T11:27:25;14.50;99.90
1806;DHT22;901;48.142;11.516;2022-10-03T11:30:19;14.40;99.90
1806;DHT22;901;48.142;11.516;2022-10-03T11:33:15;14.40;99.90
1806;DHT22;901;48.142;11.516;2022-10-03T11:36:17;14.50;99.90
1806;DHT22;901;48.142;11.516;2022-10-03T11:38:54;14.60;99.90
1806;DHT22;901;48.142;11.516;2022-10-03T11:41:45;14.70;99.90
1806;DHT22;901;48.142;11.516;2022-10-03T11:44:18;14.60;99.90
1806;DHT22;901;48.142;11.516;2022-10-03T11:52:33;14.90;99.90
1806;DHT22;901;48.142;11.516;2022-10-03T11:55:15;15.00;99.90
1806;DHT22;901;48.142;11.516;2022-10-03T11:57:50;14.90;99.90
1806;DHT22;901;48.142;11.516;2022-10-03T12:00:20;14.90;99.90
1806;DHT22;901;48.142;11.516;2022-10-03T12:03:11;15.10;99.90
1806;DHT22;901;48.142;11.516;2022-10-03T12:05:51;15.40;99.90
1806;DHT22;901;48.142;11.516;2022-10-03T12:08:41;15.40;99.90
1806;DHT22;901;48.142;11.516;2022-10-03T12:11:24;15.70;99.90
1806;DHT22;901;48.142;11.516;2022-10-03T12:14:10;16.00;99.90
1806;DHT22;901;48.142;11.516;2022-10-03T12:16:52;16.20;99.90
1806;DHT22;901;48.142;11.516;2022-10-03T12:19:27;16.60;99.90
1806;DHT22;901;48.142;11.516;2022-10-03T12:22:03;16.70;99.90
1806;DHT22;901;48.142;11.516;2022-10-03T12:24:34;16.90;99.90
1806;DHT22;901;48.142;11.516;2022-10-03T12:27:06;17.20;99.90
1806;DHT22;901;48.142;11.516;2022-10-03T12:29:39;17.20;99.90
1806;DHT22;901;48.142;11.516;2022-10-03T12:32:22;17.20;99.90
1806;DHT22;901;48.142;11.516;2022-10-03T12:35:01;16.80;99.90
1806;DHT22;901;48.142;11.516;2022-10-03T12:37:44;16.60;99.90
1806;DHT22;901;48.142;11.516;2022-10-03T12:40:22;16.40;99.90
1806;DHT22;901;48.142;11.516;2022-10-03T12:43:03;16.10;99.90
1806;DHT22;901;48.142;11.516;2022-10-03T12:45:35;15.70;99.90
1806;DHT22;901;48.142;11.516;2022-10-03T12:48:39;15.50;99.90
1806;DHT22;901;48.142;11.516;2022-10-03T12:51:20;15.20;99.90
1806;DHT22;901;48.142;11.516;2022-10-03T12:53:56;15.00;99.90
1806;DHT22;901;48.142;11.516;2022-10-03T12:56:36;14.90;99.90
1806;DHT22;901;48.142;11.516;2022-10-03T12:59:21;14.80;99.90
1806;DHT22;901;48.142;11.516;2022-10-03T13:02:04;14.70;99.90
1806;DHT22;901;48.142;11.516;2022-10-03T13:04:39;14.60;99.90
1806;DHT22;901;48.142;11.516;2022-10-03T13:07:23;14.80;99.90
1806;DHT22;901;48.142;11.516;2022-10-03T13:10:11;14.90;99.90
1806;DHT22;901;48.142;11.516;2022-10-03T13:12:46;15.20;99.90
1806;DHT22;901;48.142;11.516;2022-10-03T13:15:41;15.50;99.90
1806;DHT22;901;48.142;11.516;2022-10-03T13:18:21;15.90;99.90
1806;DHT22;901;48.142;11.516;2022-10-03T13:20:58;16.10;99.90
1806;DHT22;901;48.142;11.516;2022-10-03T13:23:35;16.30;99.90
1806;DHT22;901;48.142;11.516;2022-10-03T13:26:11;16.50;99.90
1806;DHT22;901;48.142;11.516;2022-10-03T13:29:00;16.60;99.90
1806;DHT22;901;48.142;11.516;2022-10-03T13:31:31;16.30;99.90
1806;DHT22;901;48.142;11.516;2022-10-03T13:34:01;15.90;99.90
1806;DHT22;901;48.142;11.516;2022-10-03T13:36:36;15.70;99.90
1806;DHT22;901;48.142;11.516;2022-10-03T13:39:12;15.60;99.90
1806;DHT22;901;48.142;11.516;2022-10-03T13:41:56;15.40;99.90
1806;DHT22;901;48.142;11.516;2022-10-03T13:44:34;15.40;99.90
1806;DHT22;901;48.142;11.516;2022-10-03T13:47:11;15.10;99.90
1806;DHT22;901;48.142;11.516;2022-10-03T13:49:50;15.00;99.90
1806;DHT22;901;48.142;11.516;2022-10-03T13:52:23;14.80;99.90
1806;DHT22;901;48.142;11.516;2022-10-03T13:55:09;14.80;99.90
1806;DHT22;901;48.142;11.516;2022-10-03T13:57:44;14.80;99.90
1806;DHT22;901;48.142;11.516;2022-10-03T14:00:14;14.90;99.90
1806;DHT22;901;48.142;11.516;2022-10-03T14:03:03;15.00;99.90
1806;DHT22;901;48.142;11.516;2022-10-03T14:05:53;15.00;99.90
1806;DHT22;901;48.142;11.516;2022-10-03T14:08:47;14.90;99.90
1806;DHT22;901;48.142;11.516;2022-10-03T14:11:24;14.90;99.90
1806;DHT22;901;48.142;11.516;2022-10-03T14:14:20;14.90;99.90
1806;DHT22;901;48.142;11.516;2022-10-03T14:16:54;14.90;99.90
1806;DHT22;901;48.142;11.516;2022-10-03T14:19:31;14.80;99.90
1806;DHT22;901;48.142;11.516;2022-10-03T14:22:16;14.80;99.90
1806;DHT22;901;48.142;11.516;2022-10-03T14:24:54;14.80;99.90
1806;DHT22;901;48.142;11.516;2022-10-03T14:27:46;14.80;99.90
1806;DHT22;901;48.142;11.516;2022-10-03T14:30:18;14.80;99.90
1806;DHT22;901;48.142;11.516;2022-10-03T14:32:52;14.80;99.90
1806;DHT22;901;48.142;11.516;2022-10-03T14:35:29;14.70;99.90
1806;DHT22;901;48.142;11.516;2022-10-03T14:38:08;14.60;99.90
1806;DHT22;901;48.142;11.516;2022-10-03T14:40:53;14.40;99.90
1806;DHT22;901;48.142;11.516;2022-10-03T14:43:34;14.40;99.90
1806;DHT22;901;48.142;11.516;2022-10-03T14:46:04;14.50;99.90
1806;DHT22;901;48.142;11.516;2022-10-03T14:48:36;14.50;99.90
1806;DHT22;901;48.142;11.516;2022-10-03T14:51:12;14.50;99.90
1806;DHT22;901;48.142;11.516;2022-10-03T14:53:46;14.50;99.90
1806;DHT22;901;48.142;11.516;2022-10-03T14:56:43;14.40;99.90
1806;DHT22;901;48.142;11.516;2022-10-03T14:59:18;14.40;99.90
1806;DHT22;901;48.142;11.516;2022-10-03T15:01:53;14.30;99.90
1806;DHT22;901;48.142;11.516;2022-10-03T15:04:31;14.20;99.90
1806;DHT22;901;48.142;11.516;2022-10-03T15:07:04;14.20;99.90
1806;DHT22;901;48.142;11.516;2022-10-03T15:09:45;14.20;99.90
1806;DHT22;901;48.142;11.516;2022-10-03T15:12:28;14.20;99.90
1806;DHT22;901;48.142;11.516;2022-10-03T15:15:12;14.10;99.90
1806;DHT22;901;48.142;11.516;2022-10-03T15:17:50;14.10;99.90
1806;DHT22;901;48.142;11.516;2022-10-03T15:20:31;14.10;99.90
1806;DHT22;901;48.142;11.516;2022-10-03T15:23:17;14.10;99.90
1806;DHT22;901;48.142;11.516;2022-10-03T15:25:58;14.10;99.90
1806;DHT22;901;48.142;11.516;2022-10-03T15:31:39;14.00;99.90
1806;DHT22;901;48.142;11.516;2022-10-03T15:34:20;13.90;99.90
1806;DHT22;901;48.142;11.516;2022-10-03T15:36:55;14.00;99.90
1806;DHT22;901;48.142;11.516;2022-10-03T15:39:31;13.90;99.90
1806;DHT22;901;48.142;11.516;2022-10-03T15:42:16;13.80;99.90
1806;DHT22;901;48.142;11.516;2022-10-03T15:45:04;13.70;99.90
1806;DHT22;901;48.142;11.516;2022-10-03T15:47:44;13.60;99.90
1806;DHT22;901;48.142;11.516;2022-10-03T15:50:26;13.60;99.90
1806;DHT22;901;48.142;11.516;2022-10-03T15:53:17;13.60;99.90
1806;DHT22;901;48.142;11.516;2022-10-03T15:56:19;13.60;99.90
1806;DHT22;901;48.142;11.516;2022-10-03T15:59:07;13.50;99.90
1806;DHT22;901;48.142;11.516;2022-10-03T16:01:50;13.50;99.90
1806;DHT22;901;48.142;11.516;2022-10-03T16:04:43;13.40;99.90
1806;DHT22;901;48.142;11.516;2022-10-03T16:07:22;13.30;99.90
1806;DHT22;901;48.142;11.516;2022-10-03T16:10:13;13.30;99.90
1806;DHT22;901;48.142;11.516;2022-10-03T16:12:58;13.20;99.90
1806;DHT22;901;48.142;11.516;2022-10-03T16:18:57;13.10;99.90
1806;DHT22;901;48.142;11.516;2022-10-03T16:21:47;13.10;99.90
1806;DHT22;901;48.142;11.516;2022-10-03T16:24:34;13.10;99.90
1806;DHT22;901;48.142;11.516;2022-10-03T16:27:12;13.00;99.90
1806;DHT22;901;48.142;11.516;2022-10-03T16:29:52;13.00;99.90
1806;DHT22;901;48.142;11.516;2022-10-03T16:32:24;12.90;99.90
1806;DHT22;901;48.142;11.516;2022-10-03T16:34:57;12.70;99.90
1806;DHT22;901;48.142;11.516;2022-10-03T16:37:27;12.70;99.90
1806;DHT22;901;48.142;11.516;2022-10-03T16:39:58;12.60;99.90
1806;DHT22;901;48.142;11.516;2022-10-03T16:42:34;12.50;99.90
1806;DHT22;901;48.142;11.516;2022-10-03T16:45:05;12.40;99.90
1806;DHT22;901;48.142;11.516;2022-10-03T16:47:43;12.30;99.90
1806;DHT22;901;48.142;11.516;2022-10-03T16:50:20;12.30;99.90
1806;DHT22;901;48.142;11.516;2022-10-03T16:52:55;12.30;99.90
1806;DHT22;901;48.142;11.516;2022-10-03T16:55:28;12.20;99.90
1806;DHT22;901;48.142;11.516;2022-10-03T16:58:02;12.10;99.90
1806;DHT22;901;48.142;11.516;2022-10-03T17:00:36;12.00;99.90
1806;DHT22;901;48.142;11.516;2022-10-03T17:03:15;12.00;99.90
1806;DHT22;901;48.142;11.516;2022-10-03T17:05:44;11.80;99.90
1806;DHT22;901;48.142;11.516;2022-10-03T17:08:14;11.70;99.90
1806;DHT22;901;48.142;11.516;2022-10-03T17:10:46;11.80;99.90
1806;DHT22;901;48.142;11.516;2022-10-03T17:13:20;11.70;99.90
1806;DHT22;901;48.142;11.516;2022-10-03T17:15:51;11.70;99.90
1806;DHT22;901;48.142;11.516;2022-10-03T17:18:22;11.70;99.90
1806;DHT22;901;48.142;11.516;2022-10-03T17:20:53;11.60;99.90
1806;DHT22;901;48.142;11.516;2022-10-03T17:23:29;11.50;99.90
1806;DHT22;901;48.142;11.516;2022-10-03T17:26:07;11.40;99.90
1806;DHT22;901;48.142;11.516;2022-10-03T17:28:39;11.40;99.90
1806;DHT22;901;48.142;11.516;2022-10-03T17:31:28;11.30;99.90
1806;DHT22;901;48.142;11.516;2022-10-03T17:34:02;11.30;99.90
1806;DHT22;901;48.142;11.516;2022-10-03T17:39:40;11.10;99.90
1806;DHT22;901;48.142;11.516;2022-10-03T17:45:04;10.90;99.90
1806;DHT22;901;48.142;11.516;2022-10-03T17:47:48;10.90;99.90
1806;DHT22;901;48.142;11.516;2022-10-03T17:50:22;10.80;99.90
1806;DHT22;901;48.142;11.516;2022-10-03T17:52:53;10.80;99.90
1806;DHT22;901;48.142;11.516;2022-10-03T17:55:24;10.70;99.90
1806;DHT22;901;48.142;11.516;2022-10-03T17:57:55;10.70;99.90
1806;DHT22;901;48.142;11.516;2022-10-03T18:00:27;10.70;99.90
1806;DHT22;901;48.142;11.516;2022-10-03T18:02:59;10.70;99.90
1806;DHT22;901;48.142;11.516;2022-10-03T18:05:30;10.60;99.90
1806;DHT22;901;48.142;11.516;2022-10-03T18:08:01;10.60;99.90
1806;DHT22;901;48.142;11.516;2022-10-03T18:10:33;10.60;99.90
1806;DHT22;901;48.142;11.516;2022-10-03T18:13:07;10.60;99.90
1806;DHT22;901;48.142;11.516;2022-10-03T18:15:48;10.60;99.90
1806;DHT22;901;48.142;11.516;2022-10-03T18:21:45;10.50;99.90
1806;DHT22;901;48.142;11.516;2022-10-03T18:30:01;10.40;99.90
1806;DHT22;901;48.142;11.516;2022-10-03T18:32:32;10.30;99.90
1806;DHT22;901;48.142;11.516;2022-10-03T18:35:08;10.30;99.90
1806;DHT22;901;48.142;11.516;2022-10-03T18:38:10;10.40;99.90
1806;DHT22;901;48.142;11.516;2022-10-03T18:40:42;10.40;99.90
1806;DHT22;901;48.142;11.516;2022-10-03T18:43:23;10.30;99.90
1806;DHT22;901;48.142;11.516;2022-10-03T18:45:55;10.30;99.90
1806;DHT22;901;48.142;11.516;2022-10-03T18:48:31;10.30;99.90
1806;DHT22;901;48.142;11.516;2022-10-03T18:51:09;10.20;99.90
1806;DHT22;901;48.142;11.516;2022-10-03T18:53:40;10.10;99.90
1806;DHT22;901;48.142;11.516;2022-10-03T18:56:11;10.10;99.90
1806;DHT22;901;48.142;11.516;2022-10-03T18:58:41;10.00;99.90
1806;DHT22;901;48.142;11.516;2022-10-03T19:01:16;10.00;99.90
1806;DHT22;901;48.142;11.516;2022-10-03T19:03:48;10.00;99.90
1806;DHT22;901;48.142;11.516;2022-10-03T19:06:20;9.90;99.90
1806;DHT22;901;48.142;11.516;2022-10-03T19:08:49;9.90;99.90
1806;DHT22;901;48.142;11.516;2022-10-03T19:11:21;9.90;99.90
1806;DHT22;901;48.142;11.516;2022-10-03T19:13:56;9.80;99.90
1806;DHT22;901;48.142;11.516;2022-10-03T19:16:39;9.70;99.90
1806;DHT22;901;48.142;11.516;2022-10-03T19:19:13;9.60;99.90
1806;DHT22;901;48.142;11.516;2022-10-03T19:21:45;9.60;99.90
1806;DHT22;901;48.142;11.516;2022-10-03T19:24:16;9.50;99.90
1806;DHT22;901;48.142;11.516;2022-10-03T19:26:47;9.50;99.90
1806;DHT22;901;48.142;11.516;2022-10-03T19:29:20;9.40;99.90
1806;DHT22;901;48.142;11.516;2022-10-03T19:31:58;9.40;99.90
1806;DHT22;901;48.142;11.516;2022-10-03T19:34:33;9.40;99.90
1806;DHT22;901;48.142;11.516;2022-10-03T19:37:04;9.30;99.90
1806;DHT22;901;48.142;11.516;2022-10-03T19:39:32;9.20;99.90
1806;DHT22;901;48.142;11.516;2022-10-03T19:42:13;9.20;99.90
1806;DHT22;901;48.142;11.516;2022-10-03T19:44:46;9.10;99.90
1806;DHT22;901;48.142;11.516;2022-10-03T19:47:17;9.00;99.90
1806;DHT22;901;48.142;11.516;2022-10-03T19:49:53;9.00;99.90
1806;DHT22;901;48.142;11.516;2022-10-03T19:52:26;8.90;99.90
1806;DHT22;901;48.142;11.516;2022-10-03T19:54:59;8.90;99.90
1806;DHT22;901;48.142;11.516;2022-10-03T19:57:32;8.90;99.90
1806;DHT22;901;48.142;11.516;2022-10-03T20:00:06;8.80;99.90
1806;DHT22;901;48.142;11.516;2022-10-03T20:02:34;8.70;99.90
1806;DHT22;901;48.142;11.516;2022-10-03T20:05:01;8.70;99.90
1806;DHT22;901;48.142;11.516;2022-10-03T20:07:46;8.60;99.90
1806;DHT22;901;48.142;11.516;2022-10-03T20:10:49;8.60;99.90
1806;DHT22;901;48.142;11.516;2022-10-03T20:13:17;8.50;99.90
1806;DHT22;901;48.142;11.516;2022-10-03T20:15:45;8.50;99.90
1806;DHT22;901;48.142;11.516;2022-10-03T20:18:19;8.40;99.90
1806;DHT22;901;48.142;11.516;2022-10-03T20:20:48;8.40;99.90
1806;DHT22;901;48.142;11.516;2022-10-03T20:23:17;8.40;99.90
1806;DHT22;901;48.142;11.516;2022-10-03T20:25:51;8.30;99.90
1806;DHT22;901;48.142;11.516;2022-10-03T20:28:22;8.30;99.90
1806;DHT22;901;48.142;11.516;2022-10-03T20:30:52;8.20;99.90
1806;DHT22;901;48.142;11.516;2022-10-03T20:33:22;8.20;99.90
1806;DHT22;901;48.142;11.516;2022-10-03T20:35:57;8.20;99.90
1806;DHT22;901;48.142;11.516;2022-10-03T20:38:33;8.20;99.90
1806;DHT22;901;48.142;11.516;2022-10-03T20:41:07;8.20;99.90
1806;DHT22;901;48.142;11.516;2022-10-03T20:43:39;8.10;99.90
1806;DHT22;901;48.142;11.516;2022-10-03T20:46:14;8.20;99.90
1806;DHT22;901;48.142;11.516;2022-10-03T20:48:55;8.20;99.90
1806;DHT22;901;48.142;11.516;2022-10-03T20:51:38;8.10;99.90
1806;DHT22;901;48.142;11.516;2022-10-03T20:54:12;8.20;99.90
1806;DHT22;901;48.142;11.516;2022-10-03T20:56:49;8.10;99.90
1806;DHT22;901;48.142;11.516;2022-10-03T20:59:22;8.10;99.90
1806;DHT22;901;48.142;11.516;2022-10-03T21:01:58;8.10;99.90
1806;DHT22;901;48.142;11.516;2022-10-03T21:04:30;8.10;99.90
1806;DHT22;901;48.142;11.516;2022-10-03T21:07:01;8.10;99.90
1806;DHT22;901;48.142;11.516;2022-10-03T21:09:39;8.00;99.90
1806;DHT22;901;48.142;11.516;2022-10-03T21:12:17;8.00;99.90
1806;DHT22;901;48.142;11.516;2022-10-03T21:14:47;8.00;99.90
1806;DHT22;901;48.142;11.516;2022-10-03T21:17:17;8.00;99.90
1806;DHT22;901;48.142;11.516;2022-10-03T21:19:50;7.90;99.90
1806;DHT22;901;48.142;11.516;2022-10-03T21:22:20;7.90;99.90
1806;DHT22;901;48.142;11.516;2022-10-03T21:24:54;7.80;99.90
1806;DHT22;901;48.142;11.516;2022-10-03T21:27:23;7.80;99.90
1806;DHT22;901;48.142;11.516;2022-10-03T21:29:55;7.80;99.90
1806;DHT22;901;48.142;11.516;2022-10-03T21:32:57;7.80;99.90
1806;DHT22;901;48.142;11.516;2022-10-03T21:35:28;7.80;99.90
1806;DHT22;901;48.142;11.516;2022-10-03T21:38:05;7.70;99.90
1806;DHT22;901;48.142;11.516;2022-10-03T21:40:48;7.70;99.90
1806;DHT22;901;48.142;11.516;2022-10-03T21:43:28;7.60;99.90
1806;DHT22;901;48.142;11.516;2022-10-03T21:46:04;7.70;99.90
1806;DHT22;901;48.142;11.516;2022-10-03T21:48:44;7.60;99.90
1806;DHT22;901;48.142;11.516;2022-10-03T21:51:22;7.60;99.90
1806;DHT22;901;48.142;11.516;2022-10-03T21:53:59;7.60;99.90
1806;DHT22;901;48.142;11.516;2022-10-03T21:56:46;7.50;99.90
1806;DHT22;901;48.142;11.516;2022-10-03T21:59:45;7.50;99.90
1806;DHT22;901;48.142;11.516;2022-10-03T22:02:17;7.50;99.90
1806;DHT22;901;48.142;11.516;2022-10-03T22:04:52;7.50;99.90
1806;DHT22;901;48.142;11.516;2022-10-03T22:07:32;7.50;99.90
1806;DHT22;901;48.142;11.516;2022-10-03T22:10:02;7.50;99.90
1806;DHT22;901;48.142;11.516;2022-10-03T22:12:38;7.40;99.90
1806;DHT22;901;48.142;11.516;2022-10-03T22:15:10;7.50;99.90
1806;DHT22;901;48.142;11.516;2022-10-03T22:17:43;7.40;99.90
1806;DHT22;901;48.142;11.516;2022-10-03T22:20:16;7.40;99.90
1806;DHT22;901;48.142;11.516;2022-10-03T22:22:56;7.40;99.90
1806;DHT22;901;48.142;11.516;2022-10-03T22:25:39;7.40;99.90
1806;DHT22;901;48.142;11.516;2022-10-03T22:28:15;7.40;99.90
1806;DHT22;901;48.142;11.516;2022-10-03T22:30:50;7.40;99.90
1806;DHT22;901;48.142;11.516;2022-10-03T22:33:28;7.30;99.90
1806;DHT22;901;48.142;11.516;2022-10-03T22:35:59;7.40;99.90
1806;DHT22;901;48.142;11.516;2022-10-03T22:38:30;7.30;99.90
1806;DHT22;901;48.142;11.516;2022-10-03T22:41:00;7.30;99.90
1806;DHT22;901;48.142;11.516;2022-10-03T22:43:27;7.20;99.90
1806;DHT22;901;48.142;11.516;2022-10-03T22:45:56;7.20;99.90
1806;DHT22;901;48.142;11.516;2022-10-03T22:48:26;7.20;99.90
1806;DHT22;901;48.142;11.516;2022-10-03T22:50:55;7.20;99.90
1806;DHT22;901;48.142;11.516;2022-10-03T22:53:27;7.20;99.90
1806;DHT22;901;48.142;11.516;2022-10-03T22:55:58;7.10;99.90
1806;DHT22;901;48.142;11.516;2022-10-03T22:58:26;7.20;99.90
1806;DHT22;901;48.142;11.516;2022-10-03T23:00:56;7.20;99.90
1806;DHT22;901;48.142;11.516;2022-10-03T23:03:26;7.20;99.90
1806;DHT22;901;48.142;11.516;2022-10-03T23:06:17;7.20;99.90
1806;DHT22;901;48.142;11.516;2022-10-03T23:08:56;7.10;99.90
1806;DHT22;901;48.142;11.516;2022-10-03T23:11:29;7.10;99.90
1806;DHT22;901;48.142;11.516;2022-10-03T23:13:59;7.10;99.90
1806;DHT22;901;48.142;11.516;2022-10-03T23:16:42;7.00;99.90
1806;DHT22;901;48.142;11.516;2022-10-03T23:19:17;7.10;99.90
1806;DHT22;901;48.142;11.516;2022-10-03T23:21:48;7.00;99.90
1806;DHT22;901;48.142;11.516;2022-10-03T23:24:22;7.00;99.90
1806;DHT22;901;48.142;11.516;2022-10-03T23:27:04;6.90;99.90
1806;DHT22;901;48.142;11.516;2022-10-03T23:29:35;6.90;99.90
1806;DHT22;901;48.142;11.516;2022-10-03T23:32:03;6.90;99.90
1806;DHT22;901;48.142;11.516;2022-10-03T23:35:06;6.90;99.90
1806;DHT22;901;48.142;11.516;2022-10-03T23:37:41;6.90;99.90
1806;DHT22;901;48.142;11.516;2022-10-03T23:40:24;6.80;99.90
1806;DHT22;901;48.142;11.516;2022-10-03T23:43:21;6.80;99.90
1806;DHT22;901;48.142;11.516;2022-10-03T23:45:49;6.80;99.90
1806;DHT22;901;48.142;11.516;2022-10-03T23:48:17;6.80;99.90
1806;DHT22;901;48.142;11.516;2022-10-03T23:50:48;6.80;99.90
1806;DHT22;901;48.142;11.516;2022-10-03T23:53:23;6.80;99.90
1806;DHT22;901;48.142;11.516;2022-10-03T23:55:50;6.80;99.90
1806;DHT22;901;48.142;11.516;2022-10-03T23:58:26;7.00;99.90
